sensor_id;sensor_type;location;lat;lon;timestamp;P1;durP1;ratioP1;P2;durP2;ratioP2
5412;SDS011;2729;50.056;8.678;2023-03-01T00:02:22;6.70;;;5.20;;
5412;SDS011;2729;50.056;8.678;2023-03-01T00:04:48;7.83;;;5.53;;
5412;SDS011;2729;50.056;8.678;2023-03-01T00:07:13;9.93;;;5.67;;
5412;SDS011;2729;50.056;8.678;2023-03-01T00:09:39;7.97;;;4.40;;
5412;SDS011;2729;50.056;8.678;2023-03-01T00:12:05;5.50;;;4.90;;
5412;SDS011;2729;50.056;8.678;2023-03-01T00:14:32;9.87;;;5.40;;
5412;SDS011;2729;50.056;8.678;2023-03-01T00:16:58;8.17;;;5.20;;
5412;SDS011;2729;50.056;8.678;2023-03-01T00:19:25;6.77;;;5.33;;
5412;SDS011;2729;50.056;8.678;2023-03-01T00:21:52;8.10;;;4.90;;
5412;SDS011;2729;50.056;8.678;2023-03-01T00:24:18;11.53;;;5.53;;
5412;SDS011;2729;50.056;8.678;2023-03-01T00:26:43;8.83;;;5.37;;
5412;SDS011;2729;50.056;8.678;2023-03-01T00:29:09;13.97;;;5.57;;
5412;SDS011;2729;50.056;8.678;2023-03-01T00:31:35;5.73;;;5.00;;
5412;SDS011;2729;50.056;8.678;2023-03-01T00:34:04;6.63;;;4.93;;
5412;SDS011;2729;50.056;8.678;2023-03-01T00:36:32;11.27;;;5.73;;
5412;SDS011;2729;50.056;8.678;2023-03-01T00:39:00;9.00;;;5.47;;
5412;SDS011;2729;50.056;8.678;2023-03-01T00:41:26;8.60;;;4.80;;
5412;SDS011;2729;50.056;8.678;2023-03-01T00:43:53;9.83;;;5.57;;
5412;SDS011;2729;50.056;8.678;2023-03-01T00:46:22;8.90;;;5.17;;
5412;SDS011;2729;50.056;8.678;2023-03-01T00:48:50;7.63;;;4.57;;
5412;SDS011;2729;50.056;8.678;2023-03-01T00:51:17;8.20;;;5.23;;
5412;SDS011;2729;50.056;8.678;2023-03-01T00:53:46;10.97;;;5.77;;
5412;SDS011;2729;50.056;8.678;2023-03-01T00:56:13;6.00;;;4.67;;
5412;SDS011;2729;50.056;8.678;2023-03-01T00:58:40;8.23;;;4.90;;
5412;SDS011;2729;50.056;8.678;2023-03-01T01:01:07;9.03;;;5.60;;
5412;SDS011;2729;50.056;8.678;2023-03-01T01:03:43;6.87;;;4.83;;
5412;SDS011;2729;50.056;8.678;2023-03-01T01:06:18;6.97;;;5.23;;
5412;SDS011;2729;50.056;8.678;2023-03-01T01:08:51;7.37;;;5.17;;
5412;SDS011;2729;50.056;8.678;2023-03-01T01:11:18;7.03;;;4.30;;
5412;SDS011;2729;50.056;8.678;2023-03-01T01:13:46;9.43;;;5.63;;
5412;SDS011;2729;50.056;8.678;2023-03-01T01:16:12;7.43;;;5.33;;
5412;SDS011;2729;50.056;8.678;2023-03-01T01:18:39;6.90;;;4.40;;
5412;SDS011;2729;50.056;8.678;2023-03-01T01:21:08;7.67;;;4.80;;
5412;SDS011;2729;50.056;8.678;2023-03-01T01:23:37;8.30;;;5.77;;
5412;SDS011;2729;50.056;8.678;2023-03-01T01:26:05;8.10;;;5.13;;
5412;SDS011;2729;50.056;8.678;2023-03-01T01:28:31;6.80;;;4.70;;
5412;SDS011;2729;50.056;8.678;2023-03-01T01:30:58;10.00;;;4.90;;
5412;SDS011;2729;50.056;8.678;2023-03-01T01:33:24;8.23;;;5.60;;
5412;SDS011;2729;50.056;8.678;2023-03-01T01:35:50;8.60;;;5.33;;
5412;SDS011;2729;50.056;8.678;2023-03-01T01:38:16;8.00;;;4.90;;
5412;SDS011;2729;50.056;8.678;2023-03-01T01:40:45;7.40;;;4.67;;
5412;SDS011;2729;50.056;8.678;2023-03-01T01:43:26;7.70;;;5.90;;
5412;SDS011;2729;50.056;8.678;2023-03-01T01:49:02;8.10;;;6.07;;
5412;SDS011;2729;50.056;8.678;2023-03-01T01:51:32;8.23;;;5.53;;
5412;SDS011;2729;50.056;8.678;2023-03-01T01:54:11;15.80;;;5.33;;
5412;SDS011;2729;50.056;8.678;2023-03-01T01:56:40;9.43;;;5.50;;
5412;SDS011;2729;50.056;8.678;2023-03-01T01:59:09;9.90;;;5.50;;
5412;SDS011;2729;50.056;8.678;2023-03-01T02:01:37;7.60;;;4.90;;
5412;SDS011;2729;50.056;8.678;2023-03-01T02:04:03;9.83;;;6.03;;
5412;SDS011;2729;50.056;8.678;2023-03-01T02:06:33;13.93;;;5.87;;
5412;SDS011;2729;50.056;8.678;2023-03-01T02:09:05;9.90;;;5.30;;
5412;SDS011;2729;50.056;8.678;2023-03-01T02:11:36;9.87;;;5.33;;
5412;SDS011;2729;50.056;8.678;2023-03-01T02:14:03;8.73;;;5.30;;
5412;SDS011;2729;50.056;8.678;2023-03-01T02:16:29;9.63;;;5.70;;
5412;SDS011;2729;50.056;8.678;2023-03-01T02:18:56;7.20;;;5.13;;
5412;SDS011;2729;50.056;8.678;2023-03-01T02:21:31;10.07;;;6.87;;
5412;SDS011;2729;50.056;8.678;2023-03-01T02:24:03;8.40;;;5.03;;
5412;SDS011;2729;50.056;8.678;2023-03-01T02:26:55;7.13;;;5.03;;
5412;SDS011;2729;50.056;8.678;2023-03-01T02:29:23;11.37;;;5.37;;
5412;SDS011;2729;50.056;8.678;2023-03-01T02:31:49;7.90;;;5.60;;
5412;SDS011;2729;50.056;8.678;2023-03-01T02:34:19;8.00;;;5.60;;
5412;SDS011;2729;50.056;8.678;2023-03-01T02:36:55;7.60;;;5.00;;
5412;SDS011;2729;50.056;8.678;2023-03-01T02:39:26;12.67;;;6.60;;
5412;SDS011;2729;50.056;8.678;2023-03-01T02:41:56;6.93;;;5.50;;
5412;SDS011;2729;50.056;8.678;2023-03-01T02:44:23;11.70;;;6.10;;
5412;SDS011;2729;50.056;8.678;2023-03-01T02:46:50;7.60;;;5.20;;
5412;SDS011;2729;50.056;8.678;2023-03-01T02:49:20;8.27;;;5.70;;
5412;SDS011;2729;50.056;8.678;2023-03-01T02:52:11;11.43;;;6.73;;
5412;SDS011;2729;50.056;8.678;2023-03-01T02:57:24;13.07;;;6.70;;
5412;SDS011;2729;50.056;8.678;2023-03-01T02:59:53;12.67;;;5.70;;
5412;SDS011;2729;50.056;8.678;2023-03-01T03:02:23;10.37;;;6.90;;
5412;SDS011;2729;50.056;8.678;2023-03-01T03:05:32;10.13;;;6.20;;
5412;SDS011;2729;50.056;8.678;2023-03-01T03:07:59;9.40;;;5.37;;
5412;SDS011;2729;50.056;8.678;2023-03-01T03:10:28;8.63;;;6.60;;
5412;SDS011;2729;50.056;8.678;2023-03-01T03:13:02;11.03;;;5.93;;
5412;SDS011;2729;50.056;8.678;2023-03-01T03:15:30;11.63;;;7.60;;
5412;SDS011;2729;50.056;8.678;2023-03-01T03:18:02;8.63;;;6.43;;
5412;SDS011;2729;50.056;8.678;2023-03-01T03:20:30;10.27;;;6.27;;
5412;SDS011;2729;50.056;8.678;2023-03-01T03:22:57;12.30;;;6.10;;
5412;SDS011;2729;50.056;8.678;2023-03-01T03:25:24;16.07;;;6.90;;
5412;SDS011;2729;50.056;8.678;2023-03-01T03:27:52;7.40;;;5.80;;
5412;SDS011;2729;50.056;8.678;2023-03-01T03:30:23;10.77;;;6.13;;
5412;SDS011;2729;50.056;8.678;2023-03-01T03:32:50;14.20;;;6.67;;
5412;SDS011;2729;50.056;8.678;2023-03-01T03:35:24;14.30;;;6.20;;
5412;SDS011;2729;50.056;8.678;2023-03-01T03:37:57;10.17;;;6.43;;
5412;SDS011;2729;50.056;8.678;2023-03-01T03:40:32;21.33;;;6.20;;
5412;SDS011;2729;50.056;8.678;2023-03-01T03:42:58;11.00;;;6.53;;
5412;SDS011;2729;50.056;8.678;2023-03-01T03:45:24;8.60;;;6.10;;
5412;SDS011;2729;50.056;8.678;2023-03-01T03:47:50;10.27;;;6.40;;
5412;SDS011;2729;50.056;8.678;2023-03-01T03:50:16;11.53;;;6.50;;
5412;SDS011;2729;50.056;8.678;2023-03-01T03:52:43;11.70;;;7.13;;
5412;SDS011;2729;50.056;8.678;2023-03-01T03:55:10;11.37;;;7.10;;
5412;SDS011;2729;50.056;8.678;2023-03-01T03:57:41;12.20;;;5.97;;
5412;SDS011;2729;50.056;8.678;2023-03-01T04:00:09;11.40;;;6.77;;
5412;SDS011;2729;50.056;8.678;2023-03-01T04:02:41;9.33;;;6.37;;
5412;SDS011;2729;50.056;8.678;2023-03-01T04:05:08;7.73;;;5.97;;
5412;SDS011;2729;50.056;8.678;2023-03-01T04:07:35;9.93;;;6.50;;
5412;SDS011;2729;50.056;8.678;2023-03-01T04:10:02;9.10;;;6.67;;
5412;SDS011;2729;50.056;8.678;2023-03-01T04:12:34;11.43;;;5.97;;
5412;SDS011;2729;50.056;8.678;2023-03-01T04:15:00;12.50;;;7.00;;
5412;SDS011;2729;50.056;8.678;2023-03-01T04:17:30;13.50;;;7.10;;
5412;SDS011;2729;50.056;8.678;2023-03-01T04:19:56;11.80;;;6.77;;
5412;SDS011;2729;50.056;8.678;2023-03-01T04:22:22;11.23;;;6.93;;
5412;SDS011;2729;50.056;8.678;2023-03-01T04:24:48;10.87;;;6.90;;
5412;SDS011;2729;50.056;8.678;2023-03-01T04:27:14;10.63;;;6.50;;
5412;SDS011;2729;50.056;8.678;2023-03-01T04:29:40;8.53;;;5.90;;
5412;SDS011;2729;50.056;8.678;2023-03-01T04:32:06;10.97;;;6.30;;
5412;SDS011;2729;50.056;8.678;2023-03-01T04:34:32;11.93;;;7.20;;
5412;SDS011;2729;50.056;8.678;2023-03-01T04:37:00;13.23;;;6.97;;
5412;SDS011;2729;50.056;8.678;2023-03-01T04:39:25;11.13;;;7.10;;
5412;SDS011;2729;50.056;8.678;2023-03-01T04:41:51;10.70;;;6.80;;
5412;SDS011;2729;50.056;8.678;2023-03-01T04:44:18;9.13;;;6.20;;
5412;SDS011;2729;50.056;8.678;2023-03-01T04:46:44;13.10;;;6.97;;
5412;SDS011;2729;50.056;8.678;2023-03-01T04:49:10;12.57;;;6.30;;
5412;SDS011;2729;50.056;8.678;2023-03-01T04:51:36;11.70;;;6.43;;
5412;SDS011;2729;50.056;8.678;2023-03-01T04:54:03;12.50;;;6.70;;
5412;SDS011;2729;50.056;8.678;2023-03-01T04:56:34;10.87;;;6.00;;
5412;SDS011;2729;50.056;8.678;2023-03-01T04:59:00;17.90;;;7.00;;
5412;SDS011;2729;50.056;8.678;2023-03-01T05:01:26;11.93;;;7.07;;
5412;SDS011;2729;50.056;8.678;2023-03-01T05:03:52;15.83;;;7.60;;
5412;SDS011;2729;50.056;8.678;2023-03-01T05:06:18;14.93;;;6.90;;
5412;SDS011;2729;50.056;8.678;2023-03-01T05:08:45;10.93;;;6.37;;
5412;SDS011;2729;50.056;8.678;2023-03-01T05:11:11;11.23;;;6.30;;
5412;SDS011;2729;50.056;8.678;2023-03-01T05:13:38;9.97;;;6.10;;
5412;SDS011;2729;50.056;8.678;2023-03-01T05:16:05;9.63;;;6.03;;
5412;SDS011;2729;50.056;8.678;2023-03-01T05:18:33;17.60;;;7.47;;
5412;SDS011;2729;50.056;8.678;2023-03-01T05:21:04;23.70;;;7.10;;
5412;SDS011;2729;50.056;8.678;2023-03-01T05:23:32;12.20;;;6.50;;
5412;SDS011;2729;50.056;8.678;2023-03-01T05:25:59;9.40;;;6.87;;
5412;SDS011;2729;50.056;8.678;2023-03-01T05:28:26;9.23;;;6.47;;
5412;SDS011;2729;50.056;8.678;2023-03-01T05:30:54;9.90;;;6.10;;
5412;SDS011;2729;50.056;8.678;2023-03-01T05:33:20;11.20;;;7.27;;
5412;SDS011;2729;50.056;8.678;2023-03-01T05:35:47;19.53;;;6.80;;
5412;SDS011;2729;50.056;8.678;2023-03-01T05:38:14;13.30;;;7.70;;
5412;SDS011;2729;50.056;8.678;2023-03-01T05:40:41;12.50;;;7.00;;
5412;SDS011;2729;50.056;8.678;2023-03-01T05:43:09;13.33;;;6.93;;
5412;SDS011;2729;50.056;8.678;2023-03-01T05:45:36;9.13;;;6.27;;
5412;SDS011;2729;50.056;8.678;2023-03-01T05:48:03;11.83;;;6.20;;
5412;SDS011;2729;50.056;8.678;2023-03-01T05:50:35;14.07;;;7.40;;
5412;SDS011;2729;50.056;8.678;2023-03-01T05:53:15;9.57;;;6.60;;
5412;SDS011;2729;50.056;8.678;2023-03-01T05:55:43;11.30;;;7.20;;
5412;SDS011;2729;50.056;8.678;2023-03-01T05:58:11;10.83;;;6.70;;
5412;SDS011;2729;50.056;8.678;2023-03-01T06:00:40;11.27;;;6.60;;
5412;SDS011;2729;50.056;8.678;2023-03-01T06:03:06;9.60;;;6.87;;
5412;SDS011;2729;50.056;8.678;2023-03-01T06:05:32;12.40;;;6.87;;
5412;SDS011;2729;50.056;8.678;2023-03-01T06:07:59;9.47;;;6.17;;
5412;SDS011;2729;50.056;8.678;2023-03-01T06:10:26;12.37;;;7.90;;
5412;SDS011;2729;50.056;8.678;2023-03-01T06:12:52;10.13;;;6.37;;
5412;SDS011;2729;50.056;8.678;2023-03-01T06:15:17;10.73;;;6.80;;
5412;SDS011;2729;50.056;8.678;2023-03-01T06:17:44;13.50;;;8.23;;
5412;SDS011;2729;50.056;8.678;2023-03-01T06:20:15;13.53;;;7.50;;
5412;SDS011;2729;50.056;8.678;2023-03-01T06:22:44;12.17;;;7.57;;
5412;SDS011;2729;50.056;8.678;2023-03-01T06:25:14;11.70;;;7.00;;
5412;SDS011;2729;50.056;8.678;2023-03-01T06:27:42;9.40;;;6.57;;
5412;SDS011;2729;50.056;8.678;2023-03-01T06:30:08;9.13;;;6.07;;
5412;SDS011;2729;50.056;8.678;2023-03-01T06:32:36;14.90;;;7.57;;
5412;SDS011;2729;50.056;8.678;2023-03-01T06:35:03;10.10;;;6.60;;
5412;SDS011;2729;50.056;8.678;2023-03-01T06:37:30;13.03;;;7.20;;
5412;SDS011;2729;50.056;8.678;2023-03-01T06:39:56;11.37;;;6.77;;
5412;SDS011;2729;50.056;8.678;2023-03-01T06:42:23;16.50;;;7.27;;
5412;SDS011;2729;50.056;8.678;2023-03-01T06:44:49;12.70;;;7.40;;
5412;SDS011;2729;50.056;8.678;2023-03-01T06:47:15;12.33;;;6.67;;
5412;SDS011;2729;50.056;8.678;2023-03-01T06:49:42;15.97;;;6.50;;
5412;SDS011;2729;50.056;8.678;2023-03-01T06:52:08;9.83;;;6.93;;
5412;SDS011;2729;50.056;8.678;2023-03-01T06:54:34;12.90;;;7.90;;
5412;SDS011;2729;50.056;8.678;2023-03-01T06:57:00;15.07;;;7.40;;
5412;SDS011;2729;50.056;8.678;2023-03-01T06:59:26;14.20;;;7.40;;
5412;SDS011;2729;50.056;8.678;2023-03-01T07:01:52;15.80;;;7.80;;
5412;SDS011;2729;50.056;8.678;2023-03-01T07:04:18;13.30;;;7.20;;
5412;SDS011;2729;50.056;8.678;2023-03-01T07:06:44;12.43;;;6.90;;
5412;SDS011;2729;50.056;8.678;2023-03-01T07:09:09;13.80;;;7.17;;
5412;SDS011;2729;50.056;8.678;2023-03-01T07:11:35;10.67;;;6.13;;
5412;SDS011;2729;50.056;8.678;2023-03-01T07:14:01;15.23;;;7.57;;
5412;SDS011;2729;50.056;8.678;2023-03-01T07:16:27;13.00;;;7.37;;
5412;SDS011;2729;50.056;8.678;2023-03-01T07:18:53;10.47;;;6.80;;
5412;SDS011;2729;50.056;8.678;2023-03-01T07:21:19;8.90;;;6.63;;
5412;SDS011;2729;50.056;8.678;2023-03-01T07:23:47;13.10;;;6.90;;
5412;SDS011;2729;50.056;8.678;2023-03-01T07:26:13;10.43;;;6.20;;
5412;SDS011;2729;50.056;8.678;2023-03-01T07:28:39;13.07;;;7.67;;
5412;SDS011;2729;50.056;8.678;2023-03-01T07:31:05;11.43;;;7.47;;
5412;SDS011;2729;50.056;8.678;2023-03-01T07:33:32;12.67;;;7.23;;
5412;SDS011;2729;50.056;8.678;2023-03-01T07:36:01;12.33;;;7.27;;
5412;SDS011;2729;50.056;8.678;2023-03-01T07:38:29;9.17;;;6.30;;
5412;SDS011;2729;50.056;8.678;2023-03-01T07:41:02;12.03;;;7.57;;
5412;SDS011;2729;50.056;8.678;2023-03-01T07:43:29;8.80;;;6.30;;
5412;SDS011;2729;50.056;8.678;2023-03-01T07:45:59;19.70;;;6.70;;
5412;SDS011;2729;50.056;8.678;2023-03-01T07:48:26;11.13;;;6.97;;
5412;SDS011;2729;50.056;8.678;2023-03-01T07:50:53;16.17;;;7.27;;
5412;SDS011;2729;50.056;8.678;2023-03-01T07:53:19;14.77;;;7.50;;
5412;SDS011;2729;50.056;8.678;2023-03-01T07:55:45;12.17;;;7.00;;
5412;SDS011;2729;50.056;8.678;2023-03-01T07:58:11;11.83;;;6.07;;
5412;SDS011;2729;50.056;8.678;2023-03-01T08:00:40;10.90;;;7.60;;
5412;SDS011;2729;50.056;8.678;2023-03-01T08:03:06;13.83;;;6.77;;
5412;SDS011;2729;50.056;8.678;2023-03-01T08:05:32;11.53;;;7.43;;
5412;SDS011;2729;50.056;8.678;2023-03-01T08:07:58;12.40;;;7.10;;
5412;SDS011;2729;50.056;8.678;2023-03-01T08:10:24;17.03;;;7.70;;
5412;SDS011;2729;50.056;8.678;2023-03-01T08:12:51;11.80;;;7.30;;
5412;SDS011;2729;50.056;8.678;2023-03-01T08:15:17;11.17;;;7.50;;
5412;SDS011;2729;50.056;8.678;2023-03-01T08:17:44;13.03;;;7.10;;
5412;SDS011;2729;50.056;8.678;2023-03-01T08:20:10;13.77;;;7.63;;
5412;SDS011;2729;50.056;8.678;2023-03-01T08:22:38;25.00;;;7.73;;
5412;SDS011;2729;50.056;8.678;2023-03-01T08:25:04;16.20;;;8.00;;
5412;SDS011;2729;50.056;8.678;2023-03-01T08:27:30;10.53;;;6.17;;
5412;SDS011;2729;50.056;8.678;2023-03-01T08:29:56;13.03;;;8.30;;
5412;SDS011;2729;50.056;8.678;2023-03-01T08:32:22;13.53;;;7.30;;
5412;SDS011;2729;50.056;8.678;2023-03-01T08:34:48;16.30;;;8.10;;
5412;SDS011;2729;50.056;8.678;2023-03-01T08:37:14;13.47;;;7.60;;
5412;SDS011;2729;50.056;8.678;2023-03-01T08:39:40;12.10;;;7.80;;
5412;SDS011;2729;50.056;8.678;2023-03-01T08:42:06;12.77;;;8.13;;
5412;SDS011;2729;50.056;8.678;2023-03-01T08:44:32;14.73;;;8.40;;
5412;SDS011;2729;50.056;8.678;2023-03-01T08:46:59;9.40;;;7.10;;
5412;SDS011;2729;50.056;8.678;2023-03-01T08:49:25;15.57;;;6.83;;
5412;SDS011;2729;50.056;8.678;2023-03-01T08:51:52;14.57;;;8.03;;
5412;SDS011;2729;50.056;8.678;2023-03-01T08:54:19;14.77;;;7.83;;
5412;SDS011;2729;50.056;8.678;2023-03-01T08:56:46;16.63;;;7.80;;
5412;SDS011;2729;50.056;8.678;2023-03-01T08:59:13;12.77;;;7.60;;
5412;SDS011;2729;50.056;8.678;2023-03-01T09:01:40;14.20;;;7.60;;
5412;SDS011;2729;50.056;8.678;2023-03-01T09:04:09;14.47;;;7.33;;
5412;SDS011;2729;50.056;8.678;2023-03-01T09:06:35;10.40;;;7.17;;
5412;SDS011;2729;50.056;8.678;2023-03-01T09:09:02;17.47;;;8.47;;
5412;SDS011;2729;50.056;8.678;2023-03-01T09:11:29;13.60;;;7.50;;
5412;SDS011;2729;50.056;8.678;2023-03-01T09:13:56;13.53;;;8.00;;
5412;SDS011;2729;50.056;8.678;2023-03-01T09:16:22;19.93;;;9.00;;
5412;SDS011;2729;50.056;8.678;2023-03-01T09:18:52;12.40;;;7.57;;
5412;SDS011;2729;50.056;8.678;2023-03-01T09:21:20;12.97;;;7.33;;
5412;SDS011;2729;50.056;8.678;2023-03-01T09:23:48;13.80;;;7.23;;
5412;SDS011;2729;50.056;8.678;2023-03-01T09:26:16;11.33;;;7.20;;
5412;SDS011;2729;50.056;8.678;2023-03-01T09:28:47;12.53;;;6.93;;
5412;SDS011;2729;50.056;8.678;2023-03-01T09:31:15;12.47;;;7.27;;
5412;SDS011;2729;50.056;8.678;2023-03-01T09:33:42;13.27;;;7.47;;
5412;SDS011;2729;50.056;8.678;2023-03-01T09:36:11;13.37;;;7.50;;
5412;SDS011;2729;50.056;8.678;2023-03-01T09:38:39;12.03;;;7.90;;
5412;SDS011;2729;50.056;8.678;2023-03-01T09:43:44;12.77;;;7.37;;
5412;SDS011;2729;50.056;8.678;2023-03-01T09:46:20;14.30;;;7.83;;
5412;SDS011;2729;50.056;8.678;2023-03-01T09:48:58;14.70;;;7.60;;
5412;SDS011;2729;50.056;8.678;2023-03-01T09:51:35;17.77;;;8.53;;
5412;SDS011;2729;50.056;8.678;2023-03-01T09:54:05;13.57;;;8.27;;
5412;SDS011;2729;50.056;8.678;2023-03-01T10:04:38;21.40;;;8.90;;
5412;SDS011;2729;50.056;8.678;2023-03-01T10:07:21;12.20;;;7.60;;
5412;SDS011;2729;50.056;8.678;2023-03-01T10:09:53;11.70;;;7.90;;
5412;SDS011;2729;50.056;8.678;2023-03-01T10:12:20;15.23;;;8.23;;
5412;SDS011;2729;50.056;8.678;2023-03-01T10:14:54;12.20;;;7.47;;
5412;SDS011;2729;50.056;8.678;2023-03-01T10:27:16;13.20;;;8.27;;
5412;SDS011;2729;50.056;8.678;2023-03-01T10:32:51;13.80;;;7.87;;
5412;SDS011;2729;50.056;8.678;2023-03-01T10:35:20;14.50;;;8.13;;
5412;SDS011;2729;50.056;8.678;2023-03-01T10:40:33;13.93;;;7.40;;
5412;SDS011;2729;50.056;8.678;2023-03-01T10:43:01;17.43;;;7.77;;
5412;SDS011;2729;50.056;8.678;2023-03-01T10:50:32;10.60;;;7.60;;
5412;SDS011;2729;50.056;8.678;2023-03-01T10:52:59;12.10;;;8.23;;
5412;SDS011;2729;50.056;8.678;2023-03-01T10:55:27;12.33;;;7.70;;
5412;SDS011;2729;50.056;8.678;2023-03-01T10:58:11;13.53;;;8.00;;
5412;SDS011;2729;50.056;8.678;2023-03-01T11:00:54;13.87;;;8.20;;
5412;SDS011;2729;50.056;8.678;2023-03-01T11:03:30;10.00;;;7.23;;
5412;SDS011;2729;50.056;8.678;2023-03-01T11:06:05;11.93;;;7.53;;
5412;SDS011;2729;50.056;8.678;2023-03-01T11:08:46;18.10;;;7.03;;
5412;SDS011;2729;50.056;8.678;2023-03-01T11:11:25;14.03;;;7.53;;
5412;SDS011;2729;50.056;8.678;2023-03-01T11:13:58;20.27;;;8.60;;
5412;SDS011;2729;50.056;8.678;2023-03-01T11:16:32;12.80;;;7.03;;
5412;SDS011;2729;50.056;8.678;2023-03-01T11:19:07;11.17;;;7.10;;
5412;SDS011;2729;50.056;8.678;2023-03-01T11:21:49;18.13;;;7.37;;
5412;SDS011;2729;50.056;8.678;2023-03-01T11:24:17;12.43;;;7.40;;
5412;SDS011;2729;50.056;8.678;2023-03-01T11:26:46;12.17;;;7.07;;
5412;SDS011;2729;50.056;8.678;2023-03-01T11:29:26;12.33;;;6.77;;
5412;SDS011;2729;50.056;8.678;2023-03-01T11:31:57;12.10;;;6.20;;
5412;SDS011;2729;50.056;8.678;2023-03-01T11:35:09;12.00;;;7.27;;
5412;SDS011;2729;50.056;8.678;2023-03-01T11:37:26;12.00;;;7.20;;
5412;SDS011;2729;50.056;8.678;2023-03-01T11:43:00;12.13;;;6.47;;
5412;SDS011;2729;50.056;8.678;2023-03-01T11:45:42;9.73;;;6.50;;
5412;SDS011;2729;50.056;8.678;2023-03-01T11:48:28;11.03;;;5.67;;
5412;SDS011;2729;50.056;8.678;2023-03-01T11:51:17;12.87;;;6.53;;
5412;SDS011;2729;50.056;8.678;2023-03-01T11:54:02;9.90;;;6.40;;
5412;SDS011;2729;50.056;8.678;2023-03-01T11:56:38;10.80;;;6.83;;
5412;SDS011;2729;50.056;8.678;2023-03-01T11:59:20;10.37;;;5.50;;
5412;SDS011;2729;50.056;8.678;2023-03-01T12:02:07;11.60;;;6.37;;
5412;SDS011;2729;50.056;8.678;2023-03-01T12:04:52;12.07;;;6.30;;
5412;SDS011;2729;50.056;8.678;2023-03-01T12:08:07;9.70;;;5.87;;
5412;SDS011;2729;50.056;8.678;2023-03-01T12:10:42;11.67;;;6.23;;
5412;SDS011;2729;50.056;8.678;2023-03-01T12:21:35;11.73;;;6.90;;
5412;SDS011;2729;50.056;8.678;2023-03-01T12:30:01;11.97;;;6.30;;
5412;SDS011;2729;50.056;8.678;2023-03-01T12:32:47;9.47;;;5.33;;
5412;SDS011;2729;50.056;8.678;2023-03-01T12:44:14;14.77;;;6.20;;
5412;SDS011;2729;50.056;8.678;2023-03-01T12:49:44;6.70;;;5.23;;
5412;SDS011;2729;50.056;8.678;2023-03-01T12:52:14;10.37;;;5.10;;
5412;SDS011;2729;50.056;8.678;2023-03-01T12:54:45;9.40;;;5.73;;
5412;SDS011;2729;50.056;8.678;2023-03-01T12:57:14;10.63;;;5.30;;
5412;SDS011;2729;50.056;8.678;2023-03-01T13:02:35;8.43;;;4.90;;
5412;SDS011;2729;50.056;8.678;2023-03-01T13:07:54;10.43;;;6.07;;
5412;SDS011;2729;50.056;8.678;2023-03-01T13:10:33;10.37;;;5.80;;
5412;SDS011;2729;50.056;8.678;2023-03-01T13:15:34;9.50;;;5.53;;
5412;SDS011;2729;50.056;8.678;2023-03-01T13:18:03;8.20;;;5.47;;
5412;SDS011;2729;50.056;8.678;2023-03-01T13:20:57;8.30;;;5.67;;
5412;SDS011;2729;50.056;8.678;2023-03-01T13:23:26;11.67;;;5.17;;
5412;SDS011;2729;50.056;8.678;2023-03-01T13:26:03;7.73;;;4.80;;
5412;SDS011;2729;50.056;8.678;2023-03-01T13:33:46;9.70;;;5.43;;
5412;SDS011;2729;50.056;8.678;2023-03-01T13:46:59;10.10;;;5.40;;
5412;SDS011;2729;50.056;8.678;2023-03-01T13:49:40;10.67;;;5.53;;
5412;SDS011;2729;50.056;8.678;2023-03-01T13:52:28;8.13;;;5.10;;
5412;SDS011;2729;50.056;8.678;2023-03-01T13:55:00;12.70;;;5.50;;
5412;SDS011;2729;50.056;8.678;2023-03-01T13:57:33;9.30;;;5.30;;
5412;SDS011;2729;50.056;8.678;2023-03-01T14:00:02;10.77;;;5.60;;
5412;SDS011;2729;50.056;8.678;2023-03-01T14:02:30;8.60;;;5.07;;
5412;SDS011;2729;50.056;8.678;2023-03-01T14:05:00;9.20;;;6.23;;
5412;SDS011;2729;50.056;8.678;2023-03-01T14:07:27;11.20;;;6.17;;
5412;SDS011;2729;50.056;8.678;2023-03-01T14:09:58;9.73;;;5.83;;
5412;SDS011;2729;50.056;8.678;2023-03-01T14:12:34;7.83;;;5.27;;
5412;SDS011;2729;50.056;8.678;2023-03-01T14:15:15;11.43;;;5.80;;
5412;SDS011;2729;50.056;8.678;2023-03-01T14:18:09;9.17;;;6.40;;
5412;SDS011;2729;50.056;8.678;2023-03-01T14:20:44;10.30;;;5.90;;
5412;SDS011;2729;50.056;8.678;2023-03-01T14:23:23;9.90;;;5.43;;
5412;SDS011;2729;50.056;8.678;2023-03-01T14:25:50;7.70;;;4.90;;
5412;SDS011;2729;50.056;8.678;2023-03-01T14:28:31;6.27;;;4.40;;
5412;SDS011;2729;50.056;8.678;2023-03-01T14:31:03;17.43;;;5.27;;
5412;SDS011;2729;50.056;8.678;2023-03-01T14:33:56;8.87;;;4.37;;
5412;SDS011;2729;50.056;8.678;2023-03-01T14:36:26;7.60;;;5.10;;
5412;SDS011;2729;50.056;8.678;2023-03-01T14:38:54;7.07;;;4.30;;
5412;SDS011;2729;50.056;8.678;2023-03-01T14:41:21;7.80;;;5.17;;
5412;SDS011;2729;50.056;8.678;2023-03-01T14:46:26;6.53;;;4.30;;
5412;SDS011;2729;50.056;8.678;2023-03-01T14:49:06;6.47;;;4.57;;
5412;SDS011;2729;50.056;8.678;2023-03-01T14:51:37;7.30;;;4.73;;
5412;SDS011;2729;50.056;8.678;2023-03-01T14:54:10;5.90;;;4.70;;
5412;SDS011;2729;50.056;8.678;2023-03-01T14:56:46;8.97;;;5.00;;
5412;SDS011;2729;50.056;8.678;2023-03-01T14:59:13;5.33;;;4.27;;
5412;SDS011;2729;50.056;8.678;2023-03-01T15:01:40;9.77;;;5.90;;
5412;SDS011;2729;50.056;8.678;2023-03-01T15:04:09;9.23;;;5.20;;
5412;SDS011;2729;50.056;8.678;2023-03-01T15:06:37;8.73;;;5.30;;
5412;SDS011;2729;50.056;8.678;2023-03-01T15:09:07;8.40;;;5.60;;
5412;SDS011;2729;50.056;8.678;2023-03-01T15:11:39;10.27;;;6.13;;
5412;SDS011;2729;50.056;8.678;2023-03-01T15:17:19;11.73;;;6.10;;
5412;SDS011;2729;50.056;8.678;2023-03-01T15:19:56;10.07;;;5.20;;
5412;SDS011;2729;50.056;8.678;2023-03-01T15:22:23;10.83;;;5.53;;
5412;SDS011;2729;50.056;8.678;2023-03-01T15:24:51;10.83;;;6.20;;
5412;SDS011;2729;50.056;8.678;2023-03-01T15:27:19;8.47;;;5.57;;
5412;SDS011;2729;50.056;8.678;2023-03-01T15:29:54;10.50;;;5.90;;
5412;SDS011;2729;50.056;8.678;2023-03-01T15:32:30;12.00;;;5.90;;
5412;SDS011;2729;50.056;8.678;2023-03-01T15:34:58;9.53;;;5.73;;
5412;SDS011;2729;50.056;8.678;2023-03-01T15:37:37;8.60;;;5.50;;
5412;SDS011;2729;50.056;8.678;2023-03-01T15:40:20;13.57;;;5.43;;
5412;SDS011;2729;50.056;8.678;2023-03-01T15:42:47;9.83;;;5.60;;
5412;SDS011;2729;50.056;8.678;2023-03-01T15:47:41;10.30;;;5.87;;
5412;SDS011;2729;50.056;8.678;2023-03-01T15:50:33;10.40;;;5.57;;
5412;SDS011;2729;50.056;8.678;2023-03-01T15:53:05;7.07;;;5.33;;
5412;SDS011;2729;50.056;8.678;2023-03-01T15:55:33;8.90;;;5.50;;
5412;SDS011;2729;50.056;8.678;2023-03-01T15:58:00;7.27;;;4.57;;
5412;SDS011;2729;50.056;8.678;2023-03-01T16:00:28;10.40;;;5.93;;
5412;SDS011;2729;50.056;8.678;2023-03-01T16:02:54;10.73;;;4.80;;
5412;SDS011;2729;50.056;8.678;2023-03-01T16:05:22;10.33;;;5.30;;
5412;SDS011;2729;50.056;8.678;2023-03-01T16:07:50;11.50;;;5.70;;
5412;SDS011;2729;50.056;8.678;2023-03-01T16:10:17;11.07;;;6.30;;
5412;SDS011;2729;50.056;8.678;2023-03-01T16:12:44;10.07;;;5.77;;
5412;SDS011;2729;50.056;8.678;2023-03-01T16:15:20;11.37;;;5.73;;
5412;SDS011;2729;50.056;8.678;2023-03-01T16:17:51;7.47;;;4.73;;
5412;SDS011;2729;50.056;8.678;2023-03-01T16:20:21;9.97;;;5.47;;
5412;SDS011;2729;50.056;8.678;2023-03-01T16:22:48;12.07;;;5.73;;
5412;SDS011;2729;50.056;8.678;2023-03-01T16:25:15;10.00;;;5.60;;
5412;SDS011;2729;50.056;8.678;2023-03-01T16:27:43;8.83;;;5.20;;
5412;SDS011;2729;50.056;8.678;2023-03-01T16:30:10;11.50;;;6.10;;
5412;SDS011;2729;50.056;8.678;2023-03-01T16:32:38;11.00;;;5.33;;
5412;SDS011;2729;50.056;8.678;2023-03-01T16:35:12;18.03;;;6.03;;
5412;SDS011;2729;50.056;8.678;2023-03-01T16:37:39;13.90;;;5.93;;
5412;SDS011;2729;50.056;8.678;2023-03-01T16:40:06;9.30;;;5.63;;
5412;SDS011;2729;50.056;8.678;2023-03-01T16:42:58;11.17;;;5.90;;
5412;SDS011;2729;50.056;8.678;2023-03-01T16:45:27;9.93;;;5.43;;
5412;SDS011;2729;50.056;8.678;2023-03-01T16:47:58;12.07;;;6.27;;
5412;SDS011;2729;50.056;8.678;2023-03-01T16:50:24;9.10;;;5.70;;
5412;SDS011;2729;50.056;8.678;2023-03-01T16:52:50;10.97;;;5.87;;
5412;SDS011;2729;50.056;8.678;2023-03-01T16:55:16;14.67;;;6.60;;
5412;SDS011;2729;50.056;8.678;2023-03-01T16:57:42;11.77;;;5.07;;
5412;SDS011;2729;50.056;8.678;2023-03-01T17:00:09;9.53;;;5.47;;
5412;SDS011;2729;50.056;8.678;2023-03-01T17:02:38;10.67;;;5.80;;
5412;SDS011;2729;50.056;8.678;2023-03-01T17:05:06;10.20;;;6.37;;